createdAt,value
2022-08-17T00:02:26.354Z,81.36
2022-08-17T00:04:54.336Z,82.00
2022-08-17T00:07:21.531Z,82.23
2022-08-17T00:09:48.473Z,81.59
2022-08-17T00:12:41.309Z,81.86
2022-08-17T00:15:02.408Z,82.29
2022-08-17T00:17:29.525Z,82.35
2022-08-17T00:19:56.614Z,81.74
2022-08-17T00:22:32.500Z,83.73
2022-08-17T00:25:10.056Z,82.73
2022-08-17T00:27:37.207Z,83.05
2022-08-17T00:30:06.528Z,83.43
2022-08-17T00:33:14.308Z,83.27
2022-08-17T00:35:39.666Z,82.36
2022-08-17T00:38:10.044Z,82.35
2022-08-17T00:40:45.847Z,82.33
2022-08-17T00:43:40.198Z,82.56
2022-08-17T00:46:16.109Z,83.07
2022-08-17T00:48:44.362Z,84.21
2022-08-17T00:51:44.533Z,85.09
2022-08-17T00:54:34.003Z,85.07
2022-08-17T00:57:16.689Z,85.93
2022-08-17T00:59:51.136Z,85.87
2022-08-17T01:02:40.375Z,86.04
2022-08-17T01:05:16.024Z,86.04
2022-08-17T01:07:47.219Z,85.37
2022-08-17T01:10:57.462Z,86.41
2022-08-17T01:13:05.114Z,85.60
2022-08-17T01:15:35.887Z,86.37
2022-08-17T01:18:04.596Z,86.00
2022-08-17T01:20:41.906Z,86.45
2022-08-17T01:23:16.489Z,86.17
2022-08-17T01:25:53.533Z,86.34
2022-08-17T01:28:53.138Z,86.58
2022-08-17T01:31:09.674Z,86.90
2022-08-17T01:33:36.804Z,87.40
2022-08-17T01:36:07.250Z,87.55
2022-08-17T01:38:35.700Z,87.93
2022-08-17T01:41:06.537Z,87.95
2022-08-17T01:43:40.420Z,88.37
2022-08-17T01:46:07.409Z,87.06
2022-08-17T01:48:36.107Z,87.01
2022-08-17T01:51:03.192Z,87.04
2022-08-17T01:53:35.964Z,87.86
2022-08-17T01:56:07.443Z,87.15
2022-08-17T01:58:35.231Z,87.44
2022-08-17T02:01:03.437Z,88.67
2022-08-17T02:03:31.291Z,89.43
2022-08-17T02:05:58.330Z,89.69
2022-08-17T02:08:38.794Z,88.95
2022-08-17T02:11:14.893Z,88.93
2022-08-17T02:13:42.183Z,89.54
2022-08-17T02:16:09.107Z,89.05
2022-08-17T02:18:36.169Z,89.48
2022-08-17T02:21:03.180Z,89.43
2022-08-17T02:23:33.303Z,89.40
2022-08-17T02:26:00.823Z,89.24
2022-08-17T02:28:29.023Z,89.16
2022-08-17T02:31:00.939Z,89.15
2022-08-17T02:33:41.593Z,90.57
2022-08-17T02:36:11.718Z,90.23
2022-08-17T02:38:39.627Z,90.53
2022-08-17T02:41:06.793Z,90.38
2022-08-17T02:43:33.924Z,90.67
2022-08-17T02:46:00.827Z,90.16
2022-08-17T02:48:30.521Z,90.35
2022-08-17T02:50:59.934Z,89.41
2022-08-17T02:53:27.435Z,89.29
2022-08-17T02:56:00.638Z,89.55
2022-08-17T02:58:34.749Z,90.05
2022-08-17T03:01:05.075Z,89.66
2022-08-17T03:03:32.508Z,89.80
2022-08-17T03:05:59.617Z,89.86
2022-08-17T03:08:26.626Z,89.65
2022-08-17T03:10:53.713Z,90.93
2022-08-17T03:13:21.058Z,91.66
2022-08-17T03:15:48.849Z,91.73
2022-08-17T03:18:25.618Z,91.95
2022-08-17T03:20:59.666Z,91.04
2022-08-17T03:23:27.333Z,90.67
2022-08-17T03:25:54.846Z,90.33
2022-08-17T03:28:23.234Z,90.26
2022-08-17T03:30:51.609Z,91.77
2022-08-17T03:33:19.540Z,91.10
2022-08-17T03:35:47.017Z,91.25
2022-08-17T03:38:15.211Z,90.76
2022-08-17T03:40:56.569Z,90.53
2022-08-17T03:43:28.047Z,90.84
2022-08-17T03:46:27.900Z,91.53
2022-08-17T03:49:19.175Z,91.79
2022-08-17T03:52:04.632Z,93.30
2022-08-17T03:54:50.186Z,92.61
2022-08-17T03:57:17.688Z,92.58
2022-08-17T03:59:45.119Z,92.98
2022-08-17T04:02:16.687Z,93.96
2022-08-17T04:04:43.602Z,93.15
2022-08-17T04:07:10.369Z,91.90
2022-08-17T04:09:37.334Z,91.72
2022-08-17T04:12:05.219Z,91.62
2022-08-17T04:14:39.256Z,91.25
2022-08-17T04:17:20.395Z,91.03
2022-08-17T04:19:47.576Z,91.65
2022-08-17T04:22:30.601Z,91.79
2022-08-17T04:24:59.199Z,92.99
2022-08-17T04:27:26.229Z,93.10
2022-08-17T04:29:54.557Z,92.32
2022-08-17T04:32:58.407Z,92.20
2022-08-17T04:35:09.316Z,92.74
2022-08-17T04:37:36.418Z,92.81
2022-08-17T04:40:22.432Z,92.52
2022-08-17T04:43:07.685Z,92.09
2022-08-17T04:45:35.157Z,93.00
2022-08-17T04:48:02.871Z,92.49
2022-08-17T04:50:29.967Z,92.16
2022-08-17T04:52:57.231Z,92.21
2022-08-17T04:55:24.517Z,92.32
2022-08-17T04:57:51.456Z,92.21
2022-08-17T05:00:21.699Z,92.24
2022-08-17T05:02:51.055Z,92.62
2022-08-17T05:05:23.266Z,92.06
2022-08-17T05:07:57.772Z,92.80
2022-08-17T05:10:26.192Z,93.75
2022-08-17T05:13:07.419Z,93.60
2022-08-17T05:15:36.163Z,93.08
2022-08-17T05:18:04.043Z,92.58
2022-08-17T05:20:31.355Z,92.38
2022-08-17T05:23:01.247Z,91.81
2022-08-17T05:25:31.645Z,91.29
2022-08-17T05:28:02.182Z,90.24
2022-08-17T05:30:29.342Z,90.15
2022-08-17T05:32:57.030Z,89.47
2022-08-17T05:35:24.812Z,89.55
2022-08-17T05:37:52.207Z,88.88
2022-08-17T05:40:21.603Z,88.54
2022-08-17T05:42:49.662Z,89.57
2022-08-17T05:45:55.957Z,88.88
2022-08-17T05:48:08.204Z,88.82
2022-08-17T05:50:44.899Z,89.29
2022-08-17T05:53:45.650Z,89.56
2022-08-17T05:56:29.753Z,89.50
2022-08-17T05:59:24.902Z,89.82
2022-08-17T06:02:32.541Z,89.00
2022-08-17T06:05:52.924Z,88.60
2022-08-17T06:08:43.975Z,87.69
2022-08-17T06:11:29.046Z,87.91
2022-08-17T06:14:16.402Z,87.76
2022-08-17T06:16:49.141Z,87.23
2022-08-17T06:19:20.329Z,86.99
2022-08-17T06:21:50.086Z,86.11
2022-08-17T06:24:52.002Z,85.49
2022-08-17T06:27:21.614Z,84.12
2022-08-17T06:30:12.341Z,84.69
2022-08-17T06:32:42.726Z,84.23
2022-08-17T06:35:20.139Z,83.90
2022-08-17T06:37:58.357Z,83.19
2022-08-17T06:40:46.053Z,83.45
2022-08-17T06:43:58.323Z,83.03
2022-08-17T06:46:50.850Z,83.08
2022-08-17T06:49:29.070Z,83.34
2022-08-17T06:52:02.731Z,82.12
2022-08-17T06:54:59.961Z,81.41
2022-08-17T06:57:29.900Z,79.29
2022-08-17T07:00:02.378Z,80.33
2022-08-17T07:02:58.150Z,79.47
2022-08-17T07:05:31.488Z,79.16
2022-08-17T07:08:03.773Z,78.94
2022-08-17T07:10:57.157Z,77.49
2022-08-17T07:13:38.737Z,76.30
2022-08-17T07:16:17.107Z,76.54
2022-08-17T07:18:44.480Z,77.43
2022-08-17T07:21:26.956Z,74.89
2022-08-17T07:24:29.621Z,74.75
2022-08-17T07:27:22.232Z,74.17
2022-08-17T07:29:56.859Z,73.38
2022-08-17T07:32:45.365Z,72.06
2022-08-17T07:35:44.072Z,70.83
2022-08-17T07:38:25.165Z,71.67
2022-08-17T07:41:11.019Z,70.63
2022-08-17T07:43:56.782Z,71.91
2022-08-17T07:46:52.482Z,71.91
2022-08-17T07:49:39.408Z,70.23
2022-08-17T07:52:50.770Z,68.59
2022-08-17T07:55:31.633Z,65.69
2022-08-17T07:58:00.492Z,66.51
2022-08-17T08:00:31.982Z,66.33
2022-08-17T08:03:26.250Z,65.34
2022-08-17T08:05:57.838Z,64.13
2022-08-17T08:08:55.172Z,62.34
2022-08-17T08:11:36.999Z,61.73
2022-08-17T08:14:28.391Z,61.88
2022-08-17T08:16:59.568Z,62.48
2022-08-17T08:19:28.246Z,59.08
2022-08-17T08:22:16.107Z,60.91
2022-08-17T08:25:24.644Z,58.33
2022-08-17T08:28:14.289Z,57.84
2022-08-17T08:30:47.289Z,57.82
2022-08-17T08:33:27.251Z,58.61
2022-08-17T08:35:59.399Z,56.60
2022-08-17T08:38:42.838Z,57.03
2022-08-17T08:41:28.436Z,56.40
2022-08-17T08:45:00.585Z,57.48
2022-08-17T08:48:22.986Z,56.53
2022-08-17T08:51:11.903Z,54.24
2022-08-17T08:53:52.393Z,53.79
2022-08-17T08:56:39.252Z,53.72
2022-08-17T08:59:10.618Z,53.45
2022-08-17T09:02:00.856Z,52.49
2022-08-17T09:05:09.984Z,50.95
2022-08-17T09:07:56.265Z,54.26
2022-08-17T09:11:00.818Z,50.22
2022-08-17T09:14:28.758Z,49.35
2022-08-17T09:17:13.886Z,49.46
2022-08-17T09:26:23.372Z,47.64
2022-08-17T09:31:55.637Z,47.77
2022-08-17T09:34:48.492Z,46.51
2022-08-17T09:37:25.896Z,45.48
2022-08-17T09:40:08.180Z,47.63
2022-08-17T09:43:09.361Z,44.07
2022-08-17T09:45:53.369Z,43.44
2022-08-17T09:48:41.864Z,43.45
2022-08-17T09:51:44.080Z,41.74
2022-08-17T09:54:39.572Z,40.78
2022-08-17T09:57:29.763Z,41.33
2022-08-17T10:00:23.929Z,41.31
2022-08-17T10:03:20.052Z,40.96
2022-08-17T10:06:01.653Z,41.57
2022-08-17T10:08:46.184Z,39.95
2022-08-17T10:12:17.269Z,39.03
2022-08-17T10:15:33.081Z,37.45
2022-08-17T10:18:31.791Z,37.77
2022-08-17T10:21:25.389Z,37.93
2022-08-17T10:24:16.533Z,37.76
2022-08-17T10:26:55.832Z,38.85
2022-08-17T10:29:28.972Z,38.41
2022-08-17T10:32:04.313Z,38.21
2022-08-17T10:34:57.043Z,37.45
2022-08-17T10:37:46.932Z,38.15
2022-08-17T10:40:26.469Z,37.66
2022-08-17T10:43:16.544Z,38.97
2022-08-17T10:46:30.562Z,38.37
2022-08-17T10:49:21.273Z,37.05
2022-08-17T10:51:54.546Z,37.32
2022-08-17T10:54:35.200Z,38.23
2022-08-17T10:57:02.309Z,37.84
2022-08-17T10:59:56.021Z,38.08
2022-08-17T11:02:27.646Z,37.76
2022-08-17T11:05:22.461Z,37.02
2022-08-17T11:08:13.706Z,36.98
2022-08-17T11:10:54.493Z,36.76
2022-08-17T11:13:30.305Z,37.49
2022-08-17T11:16:09.151Z,37.59
2022-08-17T11:18:47.869Z,37.00
2022-08-17T11:21:43.323Z,36.96
2022-08-17T11:24:20.433Z,36.78
2022-08-17T11:27:12.163Z,35.48
2022-08-17T11:30:05.561Z,36.09
2022-08-17T11:32:54.548Z,37.58
2022-08-17T11:35:22.087Z,36.60
2022-08-17T11:37:59.220Z,37.14
2022-08-17T11:40:59.219Z,38.20
2022-08-17T11:43:49.201Z,37.52
2022-08-17T11:46:51.947Z,37.20
2022-08-17T11:50:02.683Z,38.28
2022-08-17T11:52:40.415Z,37.96
2022-08-17T11:55:33.919Z,37.51
2022-08-17T11:58:02.384Z,39.43
2022-08-17T12:01:07.487Z,37.26
2022-08-17T12:03:55.465Z,37.63
2022-08-17T12:06:42.050Z,37.12
2022-08-17T12:09:22.048Z,36.85
2022-08-17T12:12:13.389Z,38.03
2022-08-17T12:17:41.525Z,37.13
2022-08-17T12:20:21.715Z,36.86
2022-08-17T12:22:56.712Z,36.71
2022-08-17T12:25:47.790Z,36.76
2022-08-17T12:28:33.942Z,37.79
2022-08-17T12:31:04.983Z,37.98
2022-08-17T12:33:31.758Z,37.71
2022-08-17T12:36:03.268Z,38.22
2022-08-17T12:38:34.741Z,38.41
2022-08-17T12:41:23.895Z,38.52
2022-08-17T12:44:03.707Z,38.81
2022-08-17T12:46:47.406Z,39.05
2022-08-17T12:49:29.781Z,39.30
2022-08-17T12:52:13.692Z,39.56
2022-08-17T12:54:56.462Z,39.73
2022-08-17T12:57:43.239Z,40.03
2022-08-17T13:00:12.732Z,39.60
2022-08-17T13:02:44.626Z,40.53
2022-08-17T13:05:25.179Z,40.09
2022-08-17T13:07:53.691Z,40.67
2022-08-17T13:10:33.376Z,41.59
2022-08-17T13:13:06.226Z,41.43
2022-08-17T13:15:37.240Z,40.75
2022-08-17T13:18:40.263Z,42.39
2022-08-17T13:21:13.250Z,41.80
2022-08-17T13:23:39.946Z,43.20
2022-08-17T13:26:28.375Z,41.03
2022-08-17T13:28:55.698Z,41.79
2022-08-17T13:31:52.880Z,42.12
2022-08-17T13:34:29.766Z,41.32
2022-08-17T13:37:19.961Z,42.56
2022-08-17T13:39:50.175Z,44.63
2022-08-17T13:42:53.165Z,45.35
2022-08-17T13:45:43.688Z,46.63
2022-08-17T13:48:17.479Z,46.26
2022-08-17T13:51:02.900Z,45.80
2022-08-17T13:53:32.879Z,46.31
2022-08-17T13:56:37.223Z,46.76
2022-08-17T13:58:54.452Z,46.77
2022-08-17T14:02:00.954Z,47.00
2022-08-17T14:04:29.924Z,47.02
2022-08-17T14:07:00.568Z,46.98
2022-08-17T14:09:37.479Z,48.54
2022-08-17T14:12:10.932Z,51.95
2022-08-17T14:14:38.883Z,52.70
2022-08-17T14:17:06.066Z,54.30
2022-08-17T14:19:36.876Z,55.58
2022-08-17T14:22:05.112Z,55.62
2022-08-17T14:24:35.384Z,55.57
2022-08-17T14:27:04.905Z,56.68
2022-08-17T14:29:33.680Z,58.23
2022-08-17T14:32:05.155Z,59.13
2022-08-17T14:34:31.992Z,59.39
2022-08-17T14:36:58.917Z,59.88
2022-08-17T14:39:25.710Z,60.36
2022-08-17T14:41:53.266Z,58.24
2022-08-17T14:44:20.480Z,60.64
2022-08-17T14:46:49.310Z,60.65
2022-08-17T14:49:16.411Z,62.99
2022-08-17T14:51:47.243Z,62.24
2022-08-17T14:54:33.932Z,62.55
2022-08-17T14:57:22.790Z,63.29
2022-08-17T14:59:54.760Z,64.65
2022-08-17T15:02:29.807Z,63.14
2022-08-17T15:05:02.412Z,63.45
2022-08-17T15:07:30.255Z,63.68
2022-08-17T15:09:58.926Z,61.16
2022-08-17T15:12:32.418Z,59.51
2022-08-17T15:15:01.211Z,60.86
2022-08-17T15:17:45.254Z,58.29
2022-08-17T15:20:20.598Z,53.68
2022-08-17T15:22:55.766Z,50.55
2022-08-17T15:25:25.885Z,50.73
2022-08-17T15:27:53.054Z,48.22
2022-08-17T15:30:20.577Z,45.77
2022-08-17T15:32:54.470Z,46.38
2022-08-17T15:35:28.981Z,45.33
2022-08-17T15:38:06.199Z,44.68
2022-08-17T15:40:44.488Z,44.09
2022-08-17T15:43:14.379Z,44.96
2022-08-17T15:45:41.856Z,45.57
2022-08-17T15:48:09.250Z,43.97
2022-08-17T15:50:36.880Z,45.01
2022-08-17T15:53:05.227Z,42.73
2022-08-17T15:55:32.831Z,41.58
2022-08-17T15:58:00.157Z,42.60
2022-08-17T16:00:28.829Z,44.03
2022-08-17T16:03:44.451Z,44.20
2022-08-17T16:05:44.940Z,42.77
2022-08-17T16:08:18.463Z,42.61
2022-08-17T16:10:47.574Z,42.58
2022-08-17T16:13:17.567Z,43.91
2022-08-17T16:15:51.081Z,43.81
2022-08-17T16:18:26.777Z,43.88
2022-08-17T16:20:53.709Z,42.54
2022-08-17T16:23:20.778Z,43.00
2022-08-17T16:25:53.640Z,42.51
2022-08-17T16:28:22.067Z,42.36
2022-08-17T16:30:49.028Z,42.44
2022-08-17T16:33:17.002Z,42.69
2022-08-17T16:35:44.180Z,42.54
2022-08-17T16:38:12.641Z,42.75
2022-08-17T16:40:40.668Z,42.64
2022-08-17T16:43:10.903Z,41.63
2022-08-17T16:45:40.956Z,41.68
2022-08-17T16:48:09.136Z,41.80
2022-08-17T16:50:36.829Z,40.01
2022-08-17T16:53:18.044Z,40.78
2022-08-17T16:55:46.234Z,41.97
2022-08-17T16:58:14.334Z,42.22
2022-08-17T17:00:42.891Z,40.72
2022-08-17T17:03:19.424Z,40.53
2022-08-17T17:06:07.375Z,42.10
2022-08-17T17:08:47.015Z,40.58
2022-08-17T17:11:38.072Z,41.16
2022-08-17T17:14:08.934Z,41.89
2022-08-17T17:16:53.631Z,41.25
2022-08-17T17:19:38.069Z,40.92
2022-08-17T17:22:15.409Z,40.26
2022-08-17T17:24:56.589Z,41.26
2022-08-17T17:27:47.508Z,41.72
2022-08-17T17:30:21.554Z,42.95
2022-08-17T17:33:11.652Z,41.22
2022-08-17T17:35:54.511Z,41.25
2022-08-17T17:38:29.128Z,41.06
2022-08-17T17:41:12.364Z,41.66
2022-08-17T17:43:40.902Z,41.55
2022-08-17T17:46:27.140Z,42.68
2022-08-17T17:48:56.918Z,43.12
2022-08-17T17:52:02.894Z,43.52
2022-08-17T17:54:39.203Z,44.56
2022-08-17T17:57:26.024Z,44.75
2022-08-17T18:00:09.083Z,44.42
2022-08-17T18:03:22.142Z,45.45
2022-08-17T18:06:18.758Z,44.77
2022-08-17T18:09:34.108Z,45.01
2022-08-17T18:12:34.787Z,45.39
2022-08-17T18:15:22.827Z,47.07
2022-08-17T18:18:23.393Z,47.63
2022-08-17T18:20:56.215Z,49.88
2022-08-17T18:23:27.907Z,49.62
2022-08-17T18:25:56.293Z,51.41
2022-08-17T18:28:33.651Z,52.96
2022-08-17T18:31:17.220Z,54.38
2022-08-17T18:33:46.732Z,54.10
2022-08-17T18:36:30.042Z,54.93
2022-08-17T18:39:16.751Z,55.41
2022-08-17T18:41:46.643Z,55.48
2022-08-17T18:44:39.561Z,56.55
2022-08-17T18:47:14.081Z,56.23
2022-08-17T18:49:43.191Z,55.23
2022-08-17T18:52:31.083Z,53.69
2022-08-17T18:55:20.925Z,53.30
2022-08-17T18:57:57.090Z,55.54
2022-08-17T19:00:40.578Z,57.82
2022-08-17T19:03:19.584Z,58.04
2022-08-17T19:05:50.530Z,57.97
2022-08-17T19:08:34.785Z,56.55
2022-08-17T19:11:05.272Z,54.03
2022-08-17T19:13:36.237Z,54.02
2022-08-17T19:16:56.177Z,58.35
2022-08-17T19:19:28.032Z,56.05
2022-08-17T19:21:59.245Z,57.87
2022-08-17T19:24:28.664Z,59.99
2022-08-17T19:27:34.897Z,58.88
2022-08-17T19:30:13.093Z,61.07
2022-08-17T19:32:40.976Z,61.06
2022-08-17T19:35:17.362Z,61.30
2022-08-17T19:38:22.969Z,61.25
2022-08-17T19:41:04.235Z,60.17
2022-08-17T19:43:50.059Z,58.57
2022-08-17T19:46:50.555Z,58.50
2022-08-17T19:49:32.917Z,60.20
2022-08-17T19:52:16.666Z,62.91
2022-08-17T19:54:56.918Z,61.54
2022-08-17T19:58:07.489Z,61.24
2022-08-17T20:00:39.514Z,61.76
2022-08-17T20:03:18.052Z,62.74
2022-08-17T20:06:12.181Z,64.16
2022-08-17T20:09:07.253Z,64.62
2022-08-17T20:11:43.900Z,65.34
2022-08-17T20:14:22.649Z,64.77
2022-08-17T20:16:49.701Z,64.06
2022-08-17T20:19:41.240Z,62.44
2022-08-17T20:22:14.827Z,64.58
2022-08-17T20:25:10.015Z,62.91
2022-08-17T20:27:51.465Z,65.66
2022-08-17T20:30:44.533Z,66.28
2022-08-17T20:33:33.179Z,66.78
2022-08-17T20:36:14.813Z,68.76
2022-08-17T20:38:45.662Z,68.80
2022-08-17T20:41:15.758Z,67.58
2022-08-17T20:43:51.238Z,68.79
2022-08-17T20:46:29.505Z,68.43
2022-08-17T20:49:16.656Z,68.32
2022-08-17T20:52:02.529Z,69.06
2022-08-17T20:54:43.876Z,69.45
2022-08-17T20:57:33.335Z,71.36
2022-08-17T21:00:15.724Z,72.92
2022-08-17T21:02:50.699Z,72.86
2022-08-17T21:05:34.283Z,68.33
2022-08-17T21:08:54.219Z,67.75
2022-08-17T21:12:03.898Z,69.22
2022-08-17T21:14:42.106Z,70.78
2022-08-17T21:17:47.580Z,71.47
2022-08-17T21:20:50.144Z,71.96
2022-08-17T21:24:03.131Z,72.86
2022-08-17T21:26:50.590Z,73.35
2022-08-17T21:29:29.749Z,73.79
2022-08-17T21:32:28.507Z,73.59
2022-08-17T21:35:28.623Z,73.78
2022-08-17T21:38:05.144Z,75.37
2022-08-17T21:40:34.221Z,76.21
2022-08-17T21:43:05.897Z,74.34
2022-08-17T21:45:35.737Z,74.15
2022-08-17T21:48:18.300Z,74.81
2022-08-17T21:50:55.868Z,75.58
2022-08-17T21:53:30.655Z,73.12
2022-08-17T21:55:59.847Z,74.94
2022-08-17T21:58:40.206Z,75.81
2022-08-17T22:01:11.587Z,76.09
2022-08-17T22:03:39.071Z,75.87
2022-08-17T22:06:24.513Z,76.05
2022-08-17T22:09:22.270Z,75.76
2022-08-17T22:11:53.826Z,76.08
2022-08-17T22:14:51.501Z,76.61
2022-08-17T22:17:35.794Z,76.40
2022-08-17T22:20:10.012Z,76.77
2022-08-17T22:23:28.102Z,77.30
2022-08-17T22:26:02.816Z,76.19
2022-08-17T22:28:40.524Z,76.84
2022-08-17T22:31:09.838Z,76.75
2022-08-17T22:33:53.007Z,77.31
2022-08-17T22:37:13.853Z,77.98
2022-08-17T22:39:41.392Z,78.78
2022-08-17T22:42:14.579Z,78.63
2022-08-17T22:44:49.763Z,79.71
2022-08-17T22:47:24.539Z,80.10
2022-08-17T22:50:03.992Z,80.09
2022-08-17T22:53:02.349Z,80.57
2022-08-17T22:55:51.799Z,79.97
2022-08-17T22:58:40.821Z,79.59
2022-08-17T23:01:43.266Z,79.62
2022-08-17T23:04:13.056Z,79.96
2022-08-17T23:06:42.621Z,81.64
2022-08-17T23:09:09.784Z,82.10
2022-08-17T23:11:48.795Z,82.29
2022-08-17T23:14:18.548Z,82.82
2022-08-17T23:16:45.512Z,82.30
2022-08-17T23:19:15.549Z,82.67
2022-08-17T23:21:45.166Z,83.10
2022-08-17T23:24:23.059Z,81.93
2022-08-17T23:26:50.403Z,81.34
2022-08-17T23:29:17.536Z,81.89
2022-08-17T23:31:44.312Z,82.73
2022-08-17T23:34:14.793Z,82.36
2022-08-17T23:36:41.598Z,83.46
2022-08-17T23:39:08.666Z,83.69
2022-08-17T23:41:38.037Z,82.59
2022-08-17T23:44:06.956Z,81.33
2022-08-17T23:46:34.805Z,82.57
2022-08-17T23:49:02.009Z,81.59
2022-08-17T23:51:34.831Z,81.40
2022-08-17T23:54:08.360Z,82.19
2022-08-17T23:56:39.520Z,83.15
2022-08-17T23:59:06.311Z,83.37
